Terminal Aerodrome Forecast
Issued by NWS Upton, NY

Home | Current Version | Previous Version | Text Only | Print | Product List | Glossary On
Versions: 1 2 3 4 5 6 7 8 9 10 11 12 13 14 15 16 17 18 19 20 21 22 23 24 25 26 27 28 29 30 31
000
FTUS41 KOKX 251122
TAFEWR
TAF
KEWR 251122Z 2512/2618 25005KT P6SM FEW070 BKN150
     FM251400 VRB04KT P6SM SCT070 OVC100
     FM251900 02006KT P6SM OVC035
      TEMPO 2519/2522 6SM -RA BKN025
     FM252200 03009KT 5SM -RA BR OVC012
     FM260100 04009KT 4SM -DZ BR OVC008
     FM261200 07011KT 5SM BR VCSH OVC020=

USA.gov is the U.S. government's official web portal to all federal, state and local government web resources and services.